• Join FlightAware (Why Join?)
  • Login
  • US Flag 
06:19AM EDT


 

Airport Tracker/Info


-or-


 

Live Flight TrackerFlight Track Log ✈ N994CF ✈ 15-Aug-2013 ✈ 0A9 - KFXE

Flight Track Log - Related Links

Times and Time Zones

All times are in EDT time to prevent confusion due to time zone crossing. See the N994CF flight status page for this flight to view local times or setup timezone preferences in your user account.

Time Position Orientation Groundspeed Altitude Reporting Facility
EDT Latitude Longitude Course Direction KTS MPH feet Rate Location/Type
10:53AM 36.2581 -82.2622 185° South 220 253 8,100  Level Atlanta Center
10:54AM 36.2003 -82.2967 206° Southwest 225 259 9,900 1,140 Climbing Atlanta Center
10:55AM 36.1275 -82.3189 194° South 242 278 10,400 1,380 Climbing Atlanta Center
10:56AM 36.0544 -82.3153 178° South 261 300 12,700 2,100 Climbing Atlanta Center
10:57AM 35.9856 -82.3039 172° South 261 300 14,700 1,800 Climbing Atlanta Center
10:58AM 35.8500 -82.2150 185° South  Level FlightAware Approximate
10:58AM 35.9186 -82.2925 172° South 249 287 16,400  Level Atlanta Center
10:59AM 35.8494 -82.2761 169° South 249 287 17,800 1,500 Climbing Atlanta Center
11:00AM 35.7783 -82.2650 173° South 260 299 19,500 1,620 Climbing Atlanta Center
11:01AM 35.7117 -82.2561 174° South 255 293 21,100 1,500 Climbing Atlanta Center
11:02AM 35.6425 -82.2422 171° South 255 293 22,500 1,380 Climbing Atlanta Center
11:03AM 35.5736 -82.2311 173° South 255 293 23,900 1,320 Climbing Atlanta Center
11:04AM 35.5025 -82.2172 171° South 255 293 25,200 1,140 Climbing Atlanta Center
11:05AM 35.4417 -82.2058 171° South 255 293 26,200 900 Climbing Atlanta Center
11:06AM 35.3747 -82.1922 171° South 255 293 27,100 960 Climbing Atlanta Center
11:07AM 35.3056 -82.1783 171° South 255 293 28,200 1,020 Climbing Atlanta Center
11:08AM 35.2367 -82.1672 172° South 255 293 29,200 960 Climbing Atlanta Center
11:09AM 35.1717 -82.1533 170° South 255 293 30,200 900 Climbing Atlanta Center
11:10AM 35.1047 -82.1422 172° South 250 288 31,000 420 Climbing Atlanta Center
11:11AM 35.0336 -82.1286 171° South 255 293 31,100 600 Climbing Atlanta Center
11:12AM 34.9542 -82.1128 171° South 267 307 32,300 900 Climbing Atlanta Center
11:13AM 34.8933 -82.0989 169° South 253 291 33,000 300 Climbing Atlanta Center
11:14AM 34.8203 -82.0931 176° South 260 299 33,000  Level Atlanta Center
11:15AM 34.7472 -82.1025 186° South 265 305 33,000  Level Atlanta Center
11:16AM 34.6681 -82.1042 181° South 277 319 33,000  Level Atlanta Center
11:17AM 34.5844 -82.0911 173° South 290 334 33,000 -60 Level Atlanta Center
11:18AM 34.4964 -82.0703 169° South 309 356 32,900  Descending Atlanta Center
11:19AM 34.4064 -82.0547 172° South 320 368 33,000  Climbing Atlanta Center
11:20AM 34.3164 -82.0367 171° South 326 375 33,000  Level Atlanta Center
11:21AM 34.2264 -82.0239 173° South 332 382 33,000 300 Level Atlanta Center
11:22AM 34.1386 -82.0208 178° South 327 376 33,600 480 Climbing Atlanta Center
11:23AM 34.0550 -82.0053 171° South 322 371 34,000 180 Climbing Atlanta Center
11:24AM 33.9692 -81.9872 170° South 316 364 34,000  Level Atlanta Center
11:26AM 33.7450 -81.9008 162° South 332 382 34,000  Level Jacksonville Center
11:27AM 33.6650 -81.8294 143° Southeast 348 400 34,000  Level Jacksonville Center
11:28AM 33.5831 -81.7631 146° Southeast 358 412 34,000  Level Jacksonville Center
11:29AM 33.4989 -81.6944 146° Southeast 363 418 34,000  Level Jacksonville Center
11:30AM 33.4108 -81.6458 155° Southeast 358 412 34,000  Level Jacksonville Center
11:31AM 33.3228 -81.6075 160° South 353 406 34,000  Level Jacksonville Center
11:32AM 33.2325 -81.5664 159° South 348 400 34,000 -60 Level Jacksonville Center
11:33AM 33.1406 -81.5456 169° South 348 400 33,900  Descending Jacksonville Center
11:34AM 33.0486 -81.5269 170° South 341 392 34,000  Climbing Jacksonville Center
11:35AM 32.9564 -81.5061 169° South 341 392 33,900  Descending Jacksonville Center
11:36AM 32.8644 -81.4853 169° South 335 386 34,000  Climbing Jacksonville Center
11:37AM 32.7722 -81.4669 171° South 335 386 34,000  Level Jacksonville Center
11:38AM 32.6803 -81.4461 169° South 335 386 34,000  Level Jacksonville Center
11:39AM 32.5986 -81.4228 166° South 330 380 34,000  Level Jacksonville Center
11:40AM 32.4958 -81.3975 168° South 340 391 34,000 -60 Level Jacksonville Center
11:41AM 32.3994 -81.3694 166° South 340 391 33,900  Descending Jacksonville Center
11:42AM 32.3075 -81.3489 169° South 348 400 34,000  Climbing Jacksonville Center
11:43AM 32.2133 -81.3236 167° South 348 400 33,900  Descending Jacksonville Center
11:44AM 32.1189 -81.2981 167° South 348 400 34,000  Climbing Jacksonville Center
11:45AM 32.0247 -81.2728 167° South 342 394 33,900 -60 Descending Jacksonville Center
11:46AM 31.9303 -81.2475 167° South 347 399 33,900  Level Jacksonville Center
11:47AM 31.8383 -81.2247 168° South 347 399 33,900 -600 Level Jacksonville Center
11:48AM 31.7397 -81.1997 168° South 352 405 32,800 -1,140 Descending Jacksonville Center
11:49AM 31.6497 -81.1744 167° South 367 422 31,700 -1,260 Descending Jacksonville Center
11:50AM 31.5344 -81.1450 168° South 386 444 30,300 -900 Descending Jacksonville Center
11:51AM 31.4442 -81.1197 167° South 380 437 30,000 -180 Descending Jacksonville Center
11:52AM 31.3439 -81.0997 170° South 367 422 30,000  Level Jacksonville Center
11:53AM 31.2478 -81.1017 181° South 362 417 30,000  Level Jacksonville Center
11:54AM 31.1536 -81.0961 177° South 354 407 30,000  Level Jacksonville Center
11:55AM 31.0617 -81.0761 169° South 342 394 30,000  Level Jacksonville Center
11:56AM 30.9778 -81.0511 166° South 334 384 30,000  Level Jacksonville Center
11:57AM 30.8897 -81.0286 168° South 329 379 30,000  Level Jacksonville Center
11:58AM 30.7994 -81.0014 165° South 329 379 30,000  Level Jacksonville Center
12:00PM 30.6192 -80.9517 167° South 335 386 30,000  Level Jacksonville Center
12:01PM 30.5250 -80.9272 167° South 340 391 30,000  Level Jacksonville Center
12:02PM 30.4306 -80.9003 166° South 345 397 30,000  Level Jacksonville Center
12:03PM 30.3361 -80.8758 167° South 350 403 30,000  Level Jacksonville Center
12:04PM 30.2417 -80.8489 166° South 350 403 30,000  Level Jacksonville Center
12:05PM 30.1494 -80.8244 167° South 355 409 30,000  Level Jacksonville Center
12:06PM 30.0531 -80.7978 167° South 355 409 30,000  Level Jacksonville Center
12:07PM 29.9586 -80.7733 167° South 355 409 30,000  Level Jacksonville Center
12:08PM 29.8622 -80.7492 168° South 355 409 30,000  Level Jacksonville Center
12:11PM 29.6408 -80.6872 166° South 354 407 30,000  Level Miami Center
12:12PM 29.5456 -80.6625 167° South 354 407 30,000  Level Miami Center
12:13PM 29.4711 -80.6408 166° South 354 407 30,000  Level Miami Center
12:14PM 29.3489 -80.6103 168° South 354 407 30,000  Level Miami Center
12:15PM 29.2558 -80.5881 168° South 354 407 30,000  Level Miami Center
12:16PM 29.1625 -80.5614 166° South 354 407 30,000  Level Miami Center
12:17PM 29.0692 -80.5392 168° South 354 407 30,000  Level Miami Center
12:18PM 28.9719 -80.5122 166° South 354 407 30,000  Level Miami Center
12:19PM 28.8872 -80.4739 158° South 337 388 30,000  Level Miami Center
12:20PM 28.7861 -80.4303 159° South 347 399 30,000  Level Miami Center
12:21PM 28.6956 -80.3872 157° South 347 399 30,000  Level Miami Center
12:22PM 28.6067 -80.3489 159° South 347 399 30,000  Level Miami Center
12:23PM 28.5261 -80.3133 159° South 347 399 30,000  Level Miami Center
12:24PM 28.4353 -80.2728 159° South 352 405 30,000  Level Miami Center
12:25PM 28.3383 -80.2297 159° South 347 399 30,000  Level Miami Center
12:26PM 28.2517 -80.1917 159° South 349 402 30,000  Level Miami Center
12:27PM 28.1606 -80.1514 159° South 349 402 30,000  Level Miami Center
12:28PM 28.0822 -80.1139 157° South 349 402 30,000 -420 Level Miami Center
12:29PM 27.9911 -80.0736 159° South 349 402 29,200 -1,200 Descending Miami Center
12:30PM 27.8817 -80.0258 159° South 364 419 27,600 -1,440 Descending Miami Center
12:31PM 27.7906 -79.9881 160° South 386 444 26,400 -1,380 Descending Miami Center
12:32PM 27.6914 -79.9456 159° South 386 444 24,900 -1,200 Descending Miami Center
12:33PM 27.5961 -79.9031 158° South 379 436 24,000 -480 Descending Miami Center
12:34PM 27.5094 -79.8633 158° South 353 406 24,000  Level Miami Center
12:35PM 27.4081 -79.8186 159° South 347 399 24,000 -600 Level Miami Center
12:36PM 27.3147 -79.7786 159° South 352 405 22,900 -1,260 Descending Miami Center
12:37PM 27.2153 -79.7458 164° South 366 421 21,500 3,540 Descending Miami Center
12:38PM 27.1383 -79.7253 167° South 366 421 30,000 -2,580 Climbing Miami Center
12:39PM 27.0386 -79.6950 165° South 338 389 16,400 -8,160 Descending Miami Center
12:40PM 26.9431 -79.6669 165° South 327 376 13,700 -2,400 Descending Miami Center
12:41PM 26.8664 -79.6442 165° South 306 352 11,700 -2,040 Descending Miami Center
12:42PM 26.7908 -79.6678 196° South 274 315 9,700 -1,800 Descending Miami Center
12:43PM 26.7294 -79.6967 203° Southwest 279 321 8,100 -900 Descending Miami Center
12:44PM 26.6747 -79.7208 202° Southwest 273 314 8,000 -60 Descending Miami Center
12:45PM 26.5967 -79.7586 203° Southwest 258 297 8,000  Level Miami Center
12:46PM 26.5167 -79.7961 203° Southwest 286 329 8,000  Level Miami Center
12:47PM 26.4533 -79.8247 202° Southwest 274 315 8,000  Level Miami Center
12:48PM 26.3794 -79.8622 204° Southwest 274 315 8,000 -600 Level Miami Center
12:49PM 26.3406 -79.9239 235° Southwest 262 302 6,900 -1,680 Descending Miami Center
12:50PM 26.3056 -79.9994 243° Southwest 262 302 4,700 -1,800 Descending Miami Center
12:51PM 26.2836 -80.0567 247° West 238 274 3,300 -840 Descending Miami Center
12:52PM 26.2589 -80.1278 249° West 205 236 3,000 -240 Descending Miami Center
12:53PM 26.2558 -80.1742 266° West 209 241 2,900 -120 Descending Miami Center
12:54PM 26.2525 -80.2319 266° West 198 228 2,800 -360 Descending Miami Center
12:55PM 26.2425 -80.3011 261° West 177 204 2,200 -300 Descending Miami Center
12:56PM 26.2369 -80.3542 263° West 156 180 2,200  Level Miami Center
12:57PM 26.2033 -80.3647 196° South 159 183 2,200  Level Miami Center
12:58PM 26.1833 -80.3294 122° Southeast 148 170 2,200 -300 Level Miami Center
12:59PM 26.1844 -80.2808 89° East 151 174 1,700 -600 Descending Miami Center
01:00PM 26.1894 -80.2417 82° East 128 147 1,000 -780 Descending Miami Center
01:01PM 26.1925 -80.1978 86° East 122 140 200 -840 Descending Miami Center
01:03PM 26.1833 -80.1667 90° East  Level FlightAware Approximate
01:10PM 26.1973 -80.1707 90° East  Level Estimated